Time;durP1;ratioP1;P1;durP2;ratioP2;P2;SDS_P1;SDS_P2;PMS_P1;PMS_P2;Temp;Humidity;BMP_temperature;BMP_pressure;BME280_temperature;BME280_humidity;BME280_pressure;Samples;Min_cycle;Max_cycle;Signal;HPM_P1;HPM_P2
2022/01/26 00:07:16;;;;;;;30.35;13.13;;;0.50;85.10;;;;;;5027630;28;20199;-67
2022/01/26 00:09:45;;;;;;;22.13;12.20;;;0.40;85.00;;;;;;5023859;28;20319;-66
2022/01/26 00:12:13;;;;;;;22.42;13.75;;;0.30;85.20;;;;;;5028065;28;20191;-66
2022/01/26 00:14:44;;;;;;;23.27;11.55;;;0.30;85.30;;;;;;5029194;28;20195;-66
2022/01/26 00:17:14;;;;;;;25.23;14.00;;;0.30;85.40;;;;;;5028958;28;20524;-66
2022/01/26 00:19:52;;;;;;;26.88;13.20;;;0.20;84.80;;;;;;5029069;28;20223;-66
2022/01/26 00:22:38;;;;;;;21.88;13.00;;;0.20;85.60;;;;;;5028872;28;20191;-66
2022/01/26 00:25:35;;;;;;;34.80;12.55;;;0.10;85.00;;;;;;5029236;28;20365;-66
2022/01/26 00:28:30;;;;;;;33.15;13.75;;;0.10;85.50;;;;;;5028812;28;20194;-66
2022/01/26 00:39:11;;;;;;;23.90;11.95;;;0.00;86.60;;;;;;5029486;28;20198;-66
2022/01/26 00:41:40;;;;;;;20.08;11.13;;;0.00;86.40;;;;;;5028846;28;20714;-66
2022/01/26 00:44:14;;;;;;;24.55;11.35;;;0.00;86.60;;;;;;5029216;28;20196;-66
2022/01/26 00:46:48;;;;;;;20.05;12.82;;;-0.10;86.30;;;;;;5028255;28;20222;-66
2022/01/26 00:49:20;;;;;;;19.83;12.45;;;-0.10;86.80;;;;;;5029204;28;20202;-66
2022/01/26 00:51:49;;;;;;;27.13;13.68;;;-0.20;87.20;;;;;;5029222;28;20665;-66
2022/01/26 00:54:16;;;;;;;22.17;11.30;;;-0.20;87.10;;;;;;5028754;28;20187;-66
2022/01/26 00:56:45;;;;;;;19.77;12.32;;;-0.20;87.50;;;;;;5029136;28;20664;-66
2022/01/26 00:59:12;;;;;;;23.90;13.82;;;-0.20;87.30;;;;;;5028649;28;20224;-66
2022/01/26 01:01:44;;;;;;;16.70;11.13;;;-0.20;86.70;;;;;;5028763;28;20307;-66
2022/01/26 01:04:17;;;;;;;20.10;11.25;;;-0.40;85.70;;;;;;5028772;28;20184;-71
2022/01/26 01:06:55;;;;;;;21.90;11.05;;;-0.40;84.90;;;;;;5028970;28;20244;-66
2022/01/26 01:09:24;;;;;;;17.45;10.68;;;-0.60;84.50;;;;;;5028630;28;20190;-67
2022/01/26 01:11:56;;;;;;;23.10;11.40;;;-0.70;86.00;;;;;;5028639;28;20197;-66
2022/01/26 01:14:31;;;;;;;16.75;11.07;;;-0.70;86.50;;;;;;5028121;28;20191;-66
2022/01/26 01:17:02;;;;;;;17.77;11.85;;;-0.60;85.10;;;;;;5029005;28;20579;-66
2022/01/26 01:19:35;;;;;;;18.60;10.95;;;-0.70;85.80;;;;;;5028329;28;20191;-66
2022/01/26 01:22:25;;;;;;;17.38;10.63;;;-0.70;85.50;;;;;;5028081;28;20344;-68
2022/01/26 01:28:09;;;;;;;20.13;10.85;;;-0.70;84.10;;;;;;5028313;28;20264;-65
2022/01/26 01:30:43;;;;;;;16.67;11.40;;;-0.80;82.90;;;;;;5028489;28;20195;-66
2022/01/26 01:33:15;;;;;;;14.65;9.95;;;-0.80;82.70;;;;;;5028005;28;20195;-66
2022/01/26 01:35:49;;;;;;;15.52;11.10;;;-0.90;82.70;;;;;;5028405;28;20275;-67
2022/01/26 01:38:20;;;;;;;18.85;10.75;;;-0.90;82.30;;;;;;5028408;28;20878;-66
2022/01/26 01:40:51;;;;;;;16.00;10.70;;;-0.90;82.20;;;;;;5029621;28;20223;-67
2022/01/26 01:43:24;;;;;;;13.80;10.82;;;-0.90;82.00;;;;;;5031507;28;20291;-66
2022/01/26 01:45:55;;;;;;;15.80;11.23;;;-1.00;81.20;;;;;;5031886;28;20594;-69
2022/01/26 01:48:26;;;;;;;21.85;11.00;;;-1.00;81.40;;;;;;5031455;28;20664;-66
2022/01/26 01:50:56;;;;;;;16.52;10.65;;;-1.00;81.60;;;;;;5031623;28;20195;-66
2022/01/26 01:53:34;;;;;;;18.08;12.30;;;-1.00;81.20;;;;;;5031293;28;20194;-66
2022/01/26 01:56:01;;;;;;;19.25;12.40;;;-0.90;80.70;;;;;;5031517;28;20301;-66
2022/01/26 01:58:31;;;;;;;13.70;10.25;;;-1.00;80.60;;;;;;5031404;28;20219;-66
2022/01/26 02:00:59;;;;;;;19.13;11.95;;;-1.00;80.60;;;;;;5031526;28;20690;-66
2022/01/26 02:03:27;;;;;;;16.52;10.48;;;-1.00;80.30;;;;;;5031170;28;20602;-66
2022/01/26 02:05:55;;;;;;;17.08;10.50;;;-1.00;80.80;;;;;;5030725;28;20301;-65
2022/01/26 02:08:23;;;;;;;21.42;11.10;;;-1.00;81.90;;;;;;5030458;28;20500;-66
2022/01/26 02:10:52;;;;;;;16.58;11.02;;;-1.00;82.10;;;;;;5029799;28;20278;-66
2022/01/26 02:13:24;;;;;;;14.82;10.82;;;-1.00;81.50;;;;;;5030198;28;20198;-65
2022/01/26 02:16:05;;;;;;;15.27;11.23;;;-1.00;81.90;;;;;;5029686;28;20270;-66
2022/01/26 02:18:55;;;;;;;14.73;8.77;;;-1.00;82.10;;;;;;5030236;28;20195;-66
2022/01/26 02:22:00;;;;;;;15.00;11.15;;;-1.00;81.40;;;;;;5029759;28;20215;-66
2022/01/26 02:52:42;;;;;;;15.15;9.50;;;-1.50;77.10;;;;;;5015203;28;20196;-65
2022/01/26 02:55:32;;;;;;;12.40;8.05;;;-1.50;77.50;;;;;;5009323;28;20238;-65
2022/01/26 02:58:23;;;;;;;12.30;9.15;;;-1.60;77.60;;;;;;5013303;28;20244;-65
2022/01/26 03:01:05;;;;;;;17.13;10.18;;;-1.60;77.20;;;;;;5028773;28;20265;-65
2022/01/26 03:03:38;;;;;;;14.63;8.57;;;-1.60;77.20;;;;;;5028376;28;20310;-65
2022/01/26 03:06:10;;;;;;;12.05;7.88;;;-1.70;76.90;;;;;;5028733;28;20197;-65
2022/01/26 03:08:47;;;;;;;15.10;10.23;;;-1.70;77.50;;;;;;5028290;28;20323;-65
2022/01/26 03:11:17;;;;;;;12.32;8.13;;;-1.70;77.80;;;;;;5028273;28;20192;-65
2022/01/26 03:14:07;;;;;;;16.05;9.38;;;-1.60;77.80;;;;;;5028122;28;20326;-65
2022/01/26 03:16:40;;;;;;;11.60;9.40;;;-1.60;77.70;;;;;;5028636;28;20214;-65
2022/01/26 03:19:18;;;;;;;15.13;9.10;;;-1.60;77.50;;;;;;5028236;28;20203;-65
2022/01/26 03:21:55;;;;;;;12.35;8.55;;;-1.60;77.30;;;;;;5028337;28;20523;-65
2022/01/26 03:30:29;;;;;;;12.32;8.05;;;-1.60;76.60;;;;;;5027804;28;20240;-65
2022/01/26 03:33:11;;;;;;;13.40;8.50;;;-1.70;77.20;;;;;;5027649;28;20195;-65
2022/01/26 03:35:49;;;;;;;11.93;8.80;;;-1.60;77.60;;;;;;5028166;28;20567;-65
2022/01/26 03:38:22;;;;;;;16.77;9.55;;;-1.60;78.20;;;;;;5027727;28;20183;-65
2022/01/26 03:41:08;;;;;;;18.13;10.38;;;-1.60;78.70;;;;;;5028286;28;20370;-65
2022/01/26 03:43:40;;;;;;;14.75;10.45;;;-1.60;78.60;;;;;;5027746;28;20219;-65
2022/01/26 03:46:10;;;;;;;14.77;10.18;;;-1.60;78.60;;;;;;5027604;28;20615;-66
2022/01/26 03:48:37;;;;;;;13.20;10.18;;;-1.70;78.40;;;;;;5027757;28;20187;-65
2022/01/26 03:51:07;;;;;;;15.43;10.00;;;-1.70;78.20;;;;;;5027547;28;20287;-65
2022/01/26 03:53:34;;;;;;;15.90;11.02;;;-1.70;78.60;;;;;;5027571;28;20209;-65
2022/01/26 03:56:02;;;;;;;14.15;10.48;;;-1.80;78.30;;;;;;5027361;28;20191;-65
2022/01/26 03:58:37;;;;;;;20.58;10.80;;;-1.80;78.60;;;;;;5027704;28;20664;-65
2022/01/26 04:01:11;;;;;;;15.57;9.95;;;-1.90;79.40;;;;;;5027334;28;20220;-65
2022/01/26 04:03:39;;;;;;;15.40;9.23;;;-1.90;80.00;;;;;;5027363;28;20191;-65
2022/01/26 04:06:12;;;;;;;14.68;9.77;;;-1.90;80.30;;;;;;5027103;28;20188;-66
2022/01/26 04:08:45;;;;;;;15.13;11.00;;;-1.90;80.00;;;;;;5027717;28;20714;-66
2022/01/26 04:11:35;;;;;;;16.48;11.13;;;-2.00;80.20;;;;;;5027360;28;20254;-65
2022/01/26 04:14:06;;;;;;;18.13;10.27;;;-1.90;80.40;;;;;;5027240;28;20255;-65
2022/01/26 04:16:41;;;;;;;16.55;11.45;;;-1.90;80.00;;;;;;5026458;28;20188;-65
2022/01/26 04:19:13;;;;;;;15.68;10.80;;;-2.00;79.80;;;;;;5027710;28;20676;-65
2022/01/26 04:24:33;;;;;;;16.13;10.68;;;-2.00;79.40;;;;;;5026992;28;20191;-65
2022/01/26 04:27:05;;;;;;;18.45;11.55;;;-2.10;79.70;;;;;;5027665;28;20271;-65
2022/01/26 04:29:35;;;;;;;16.92;12.60;;;-2.10;80.00;;;;;;5026988;28;20237;-65
2022/01/26 04:32:08;;;;;;;15.93;10.45;;;-2.10;80.60;;;;;;5027301;28;20198;-65
2022/01/26 04:34:35;;;;;;;16.35;9.70;;;-2.00;80.60;;;;;;5026976;28;20242;-66
2022/01/26 04:37:11;;;;;;;12.45;9.15;;;-1.90;80.60;;;;;;5027323;28;20192;-66
2022/01/26 04:39:44;;;;;;;14.45;10.00;;;-1.90;80.60;;;;;;5027170;28;20206;-65
2022/01/26 04:42:16;;;;;;;13.73;10.55;;;-1.90;80.30;;;;;;5027092;28;20375;-65
2022/01/26 04:45:03;;;;;;;20.65;11.73;;;-1.90;79.40;;;;;;5026776;28;20275;-65
2022/01/26 04:47:30;;;;;;;16.95;9.70;;;-1.90;79.20;;;;;;5027197;28;20342;-65
2022/01/26 04:50:02;;;;;;;16.80;10.70;;;-1.90;79.40;;;;;;5026655;28;20291;-65
2022/01/26 04:52:30;;;;;;;14.68;9.15;;;-1.90;79.40;;;;;;5027245;28;20256;-65
2022/01/26 04:54:57;;;;;;;14.10;8.23;;;-1.80;79.60;;;;;;5027346;28;20195;-65
2022/01/26 04:57:26;;;;;;;15.35;9.30;;;-1.80;79.20;;;;;;5026762;28;20192;-66
2022/01/26 05:00:00;;;;;;;15.70;10.07;;;-1.80;78.10;;;;;;5027013;28;20203;-66
2022/01/26 05:02:27;;;;;;;15.10;10.13;;;-1.90;77.50;;;;;;5027047;28;20212;-65
2022/01/26 05:05:00;;;;;;;16.70;10.48;;;-1.80;77.60;;;;;;5027533;28;20191;-66
2022/01/26 05:07:27;;;;;;;11.73;8.40;;;-1.80;77.70;;;;;;5026748;28;20290;-65
2022/01/26 05:09:54;;;;;;;16.45;9.85;;;-1.80;77.70;;;;;;5027197;28;20248;-65
2022/01/26 05:12:23;;;;;;;15.32;8.38;;;-1.90;77.40;;;;;;5026990;28;20287;-65
2022/01/26 05:14:51;;;;;;;12.60;8.05;;;-1.90;76.90;;;;;;5027101;28;20202;-66
2022/01/26 05:17:22;;;;;;;15.15;9.10;;;-1.90;76.30;;;;;;5029989;28;20191;-65
2022/01/26 05:19:56;;;;;;;15.60;9.23;;;-1.90;75.90;;;;;;5030891;28;20527;-65
2022/01/26 05:22:24;;;;;;;11.13;7.43;;;-2.00;75.50;;;;;;5029888;28;20222;-65
2022/01/26 05:24:52;;;;;;;14.60;9.32;;;-2.00;75.90;;;;;;5029899;28;20210;-65
2022/01/26 05:27:20;;;;;;;13.00;7.53;;;-2.00;76.00;;;;;;5029910;28;20220;-66
2022/01/26 05:29:50;;;;;;;10.88;8.35;;;-2.00;76.50;;;;;;5030126;28;20298;-65
2022/01/26 05:32:20;;;;;;;13.27;8.50;;;-2.00;76.60;;;;;;5030194;28;20188;-65
2022/01/26 05:34:48;;;;;;;20.58;9.40;;;-1.90;76.40;;;;;;5030630;28;20285;-65
2022/01/26 05:37:16;;;;;;;12.30;8.15;;;-2.00;76.00;;;;;;5029802;28;20195;-66
2022/01/26 05:39:49;;;;;;;13.00;8.45;;;-2.00;75.90;;;;;;5030176;28;20239;-66
2022/01/26 05:42:17;;;;;;;12.65;7.93;;;-2.00;74.50;;;;;;5030358;28;20215;-65
2022/01/26 05:44:55;;;;;;;15.43;9.00;;;-2.00;74.20;;;;;;5030747;28;20206;-66
2022/01/26 05:47:27;;;;;;;16.45;9.48;;;-2.10;74.00;;;;;;5030232;28;20222;-66
2022/01/26 05:50:01;;;;;;;14.38;9.25;;;-2.10;74.90;;;;;;5030834;28;20192;-65
2022/01/26 05:52:32;;;;;;;14.48;9.25;;;-2.00;75.20;;;;;;5030870;28;20192;-71
2022/01/26 05:55:08;;;;;;;12.75;8.88;;;-2.00;75.50;;;;;;5030903;28;20203;-65
2022/01/26 05:57:37;;;;;;;16.50;10.65;;;-2.00;75.80;;;;;;5030804;28;20179;-66
2022/01/26 06:00:11;;;;;;;18.58;9.20;;;-2.10;75.00;;;;;;5030865;28;20199;-66
2022/01/26 06:02:40;;;;;;;17.80;10.23;;;-2.20;74.90;;;;;;5030262;28;20715;-66
2022/01/26 06:05:09;;;;;;;21.13;11.07;;;-2.30;74.70;;;;;;5030643;28;20207;-66
2022/01/26 06:07:40;;;;;;;17.30;12.23;;;-2.30;75.20;;;;;;5030631;28;20214;-65
2022/01/26 06:10:09;;;;;;;15.68;10.75;;;-2.20;75.60;;;;;;5030759;28;20199;-65
2022/01/26 06:12:38;;;;;;;14.25;9.90;;;-2.30;75.80;;;;;;5029626;28;20337;-66
2022/01/26 06:15:08;;;;;;;18.98;10.65;;;-2.30;75.60;;;;;;5030516;28;20193;-66
2022/01/26 06:17:40;;;;;;;15.43;9.82;;;-2.30;75.70;;;;;;5026697;28;20271;-65
2022/01/26 06:20:14;;;;;;;16.90;11.75;;;-2.30;75.00;;;;;;5028522;28;20196;-66
2022/01/26 06:22:42;;;;;;;19.35;12.13;;;-2.30;75.60;;;;;;5028491;28;20242;-66
2022/01/26 06:25:11;;;;;;;15.27;11.80;;;-2.40;75.20;;;;;;5028890;28;20206;-66
2022/01/26 06:28:01;;;;;;;16.02;10.75;;;-2.40;74.90;;;;;;5027350;28;20221;-66
2022/01/26 06:30:34;;;;;;;17.58;11.07;;;-2.40;75.20;;;;;;5028017;28;20238;-66
2022/01/26 06:33:03;;;;;;;21.63;12.85;;;-2.50;75.40;;;;;;5028285;28;20196;-66
2022/01/26 06:35:43;;;;;;;22.45;13.27;;;-2.50;76.30;;;;;;5028995;28;20274;-66
2022/01/26 06:38:24;;;;;;;23.58;14.48;;;-2.40;76.50;;;;;;5028705;28;20194;-66
2022/01/26 06:40:58;;;;;;;557.72;238.57;;;-2.40;76.10;;;;;;5027658;28;20385;-66
2022/01/26 06:43:28;;;;;;;119.10;50.03;;;-2.50;75.50;;;;;;5028593;28;20284;-66
2022/01/26 06:46:00;;;;;;;179.13;74.88;;;-2.50;76.10;;;;;;5028722;28;20545;-65
2022/01/26 06:48:56;;;;;;;158.27;69.93;;;-2.50;76.40;;;;;;5027191;28;20550;-66
2022/01/26 06:51:26;;;;;;;59.17;34.78;;;-2.50;76.80;;;;;;5028511;28;20192;-66
2022/01/26 06:53:53;;;;;;;47.85;25.98;;;-2.40;76.70;;;;;;5028678;28;20188;-67
2022/01/26 06:56:21;;;;;;;32.40;18.10;;;-2.50;76.90;;;;;;5028759;28;20655;-66
2022/01/26 06:58:48;;;;;;;47.92;30.33;;;-2.40;77.00;;;;;;5028836;28;20660;-66
2022/01/26 07:01:16;;;;;;;57.88;35.50;;;-2.40;77.00;;;;;;5026797;28;20199;-66
2022/01/26 07:03:43;;;;;;;50.97;28.50;;;-2.40;77.20;;;;;;5028299;28;20286;-66
2022/01/26 07:06:11;;;;;;;42.22;30.80;;;-2.40;77.50;;;;;;5026823;28;20196;-66
2022/01/26 07:08:41;;;;;;;38.35;25.60;;;-2.40;77.90;;;;;;5022619;28;20215;-66
2022/01/26 07:11:08;;;;;;;22.88;15.93;;;-2.30;78.80;;;;;;5026527;28;21292;-68
2022/01/26 07:13:35;;;;;;;49.22;24.63;;;-2.20;80.00;;;;;;5027589;28;20202;-66
2022/01/26 07:21:31;;;;;;;17.67;10.85;;;-1.50;82.20;;;;;;5025686;28;20655;-66
2022/01/26 07:24:00;;;;;;;14.35;9.88;;;-1.20;82.50;;;;;;5027608;28;20639;-66
2022/01/26 07:26:30;;;;;;;10.75;7.82;;;-0.90;81.20;;;;;;5023652;28;20187;-73
2022/01/26 07:29:10;;;;;;;15.45;13.05;;;-0.60;78.80;;;;;;5025715;28;20184;-66
2022/01/26 07:31:42;;;;;;;12.77;11.07;;;-0.40;79.10;;;;;;5025975;28;20286;-66
2022/01/26 07:34:12;;;;;;;12.05;9.20;;;-0.10;77.20;;;;;;5028367;28;20610;-66
2022/01/26 07:36:42;;;;;;;15.07;10.68;;;0.20;76.40;;;;;;5027514;28;20328;-66
2022/01/26 07:39:16;;;;;;;16.70;11.38;;;0.50;76.00;;;;;;5026995;28;20192;-67
2022/01/26 07:41:44;;;;;;;19.10;13.75;;;0.90;74.50;;;;;;5027868;28;20229;-66
2022/01/26 07:44:11;;;;;;;28.23;22.55;;;1.10;74.50;;;;;;5027435;28;20188;-67
2022/01/26 07:46:38;;;;;;;17.80;13.27;;;1.40;70.10;;;;;;5025293;28;20234;-66
2022/01/26 07:49:06;;;;;;;20.15;13.50;;;1.70;70.00;;;;;;5027430;28;20191;-66
2022/01/26 07:51:33;;;;;;;16.05;12.40;;;2.00;69.90;;;;;;5028071;28;20565;-66
2022/01/26 07:54:00;;;;;;;22.48;17.42;;;2.30;70.60;;;;;;5027860;28;20526;-66
2022/01/26 07:56:30;;;;;;;23.40;18.90;;;2.50;69.40;;;;;;5027563;28;20650;-67
2022/01/26 07:58:58;;;;;;;20.40;16.98;;;2.80;67.90;;;;;;5027635;28;20669;-66
2022/01/26 08:01:25;;;;;;;80.00;40.42;;;3.00;66.70;;;;;;5027786;28;20195;-66
2022/01/26 08:03:53;;;;;;;60.83;33.30;;;3.20;65.60;;;;;;5027128;28;20589;-69
2022/01/26 08:06:20;;;;;;;100.47;48.08;;;3.50;66.30;;;;;;5023989;28;20191;-67
2022/01/26 08:08:47;;;;;;;87.47;42.85;;;3.70;62.20;;;;;;5027768;28;20207;-72
2022/01/26 08:11:14;;;;;;;28.38;17.75;;;3.90;63.20;;;;;;5027822;28;20191;-70
2022/01/26 08:13:43;;;;;;;13.18;9.73;;;4.20;62.60;;;;;;5023334;28;20202;-66
2022/01/26 08:16:10;;;;;;;16.52;10.63;;;4.60;61.20;;;;;;5021957;28;20275;-66
2022/01/26 08:18:38;;;;;;;14.65;10.73;;;4.80;60.20;;;;;;5026833;28;20639;-67
2022/01/26 08:21:06;;;;;;;18.30;9.93;;;5.10;59.70;;;;;;5026340;28;20611;-67
2022/01/26 08:23:36;;;;;;;12.85;8.85;;;5.40;59.00;;;;;;5026347;28;20231;-66
2022/01/26 08:26:04;;;;;;;10.02;7.25;;;5.60;58.90;;;;;;5027311;28;20282;-66
2022/01/26 08:28:36;;;;;;;6.30;4.70;;;6.00;57.30;;;;;;5035697;28;20286;-67
2022/01/26 08:31:05;;;;;;;9.57;6.03;;;6.40;56.80;;;;;;5026484;28;20199;-68
2022/01/26 08:33:32;;;;;;;9.77;7.25;;;6.60;55.60;;;;;;5023079;28;20199;-69
2022/01/26 08:35:59;;;;;;;8.88;7.50;;;6.80;55.60;;;;;;5027249;28;20257;-67
2022/01/26 08:38:27;;;;;;;11.60;6.65;;;7.00;56.00;;;;;;5026159;28;20221;-67
2022/01/26 08:40:56;;;;;;;7.40;6.47;;;7.50;54.60;;;;;;5026383;28;20204;-67
2022/01/26 08:43:23;;;;;;;7.45;6.25;;;7.90;55.90;;;;;;5026683;28;20249;-68
2022/01/26 08:45:51;;;;;;;9.18;5.97;;;8.20;52.90;;;;;;5026721;28;20195;-67
2022/01/26 08:48:19;;;;;;;7.22;5.43;;;8.60;53.90;;;;;;5026849;28;20646;-67
2022/01/26 08:50:46;;;;;;;8.75;7.13;;;9.00;52.70;;;;;;5025714;28;20195;-67
2022/01/26 08:53:14;;;;;;;11.80;9.15;;;9.20;51.90;;;;;;5027038;28;20244;-67
2022/01/26 08:55:41;;;;;;;10.98;7.53;;;9.60;50.20;;;;;;5026721;28;20246;-67
2022/01/26 08:58:08;;;;;;;11.75;7.78;;;9.90;50.20;;;;;;5026269;28;20202;-68
2022/01/26 09:00:37;;;;;;;13.25;7.07;;;10.40;50.00;;;;;;5023801;28;20563;-67
2022/01/26 09:03:05;;;;;;;12.30;8.23;;;10.70;47.70;;;;;;5026720;28;20259;-67
2022/01/26 09:05:33;;;;;;;9.43;5.15;;;10.80;47.60;;;;;;5026635;28;20203;-68
2022/01/26 09:08:02;;;;;;;8.00;6.00;;;11.20;46.10;;;;;;5025984;28;20600;-67
2022/01/26 09:10:33;;;;;;;6.78;4.82;;;11.60;46.90;;;;;;5026800;28;20188;-67
2022/01/26 09:13:01;;;;;;;7.28;4.80;;;11.80;44.40;;;;;;5025922;28;20696;-67
2022/01/26 09:15:30;;;;;;;6.07;4.45;;;12.30;46.00;;;;;;5026556;28;20187;-67
2022/01/26 09:18:01;;;;;;;5.57;3.85;;;12.80;45.60;;;;;;5026202;28;20191;-67
2022/01/26 09:20:28;;;;;;;4.10;3.30;;;13.40;44.10;;;;;;5026654;28;20187;-68
2022/01/26 09:22:57;;;;;;;5.95;3.30;;;13.90;41.50;;;;;;5026752;28;20231;-68
2022/01/26 09:25:24;;;;;;;8.52;3.90;;;14.20;40.10;;;;;;5025995;28;20200;-67
2022/01/26 09:27:52;;;;;;;5.25;3.30;;;14.70;39.80;;;;;;5026767;28;20195;-68
2022/01/26 09:30:19;;;;;;;6.20;4.82;;;15.00;39.50;;;;;;5025375;28;20196;-67
2022/01/26 09:32:46;;;;;;;11.35;8.32;;;15.30;38.30;;;;;;5026433;28;20287;-67
2022/01/26 09:35:14;;;;;;;5.85;3.90;;;15.70;39.10;;;;;;5026155;28;20191;-68
2022/01/26 09:37:43;;;;;;;5.37;3.17;;;16.10;35.80;;;;;;5026528;28;20195;-67
2022/01/26 09:40:12;;;;;;;5.50;3.10;;;16.10;34.80;;;;;;5026430;28;20455;-71
2022/01/26 09:42:42;;;;;;;11.07;4.47;;;16.10;33.60;;;;;;5026167;28;20489;-68
2022/01/26 09:45:10;;;;;;;4.50;3.03;;;16.30;34.40;;;;;;5026382;28;20435;-68
2022/01/26 09:47:38;;;;;;;4.17;3.13;;;16.90;34.90;;;;;;5026215;28;20481;-67
2022/01/26 09:50:06;;;;;;;5.57;3.60;;;17.40;35.30;;;;;;5026960;28;20786;-67
2022/01/26 09:52:41;;;;;;;6.37;4.20;;;17.90;33.20;;;;;;5026281;28;20465;-67
2022/01/26 09:55:11;;;;;;;7.00;4.17;;;18.30;33.80;;;;;;5024124;28;20437;-67
2022/01/26 09:57:41;;;;;;;5.70;4.40;;;18.70;34.00;;;;;;5026273;28;20454;-69
2022/01/26 10:00:11;;;;;;;6.20;3.70;;;19.10;33.20;;;;;;5026156;28;20533;-68
2022/01/26 10:02:39;;;;;;;5.10;3.60;;;19.50;32.40;;;;;;5028202;28;20489;-67
2022/01/26 10:05:10;;;;;;;5.57;4.00;;;19.70;31.60;;;;;;5029613;28;20450;-72
2022/01/26 10:07:49;;;;;;;6.40;3.93;;;20.10;31.80;;;;;;5027287;28;20442;-67
2022/01/26 10:16:03;;;;;;;5.43;3.17;;;20.80;29.60;;;;;;5027543;28;20784;-67
2022/01/26 10:18:32;;;;;;;6.20;4.30;;;21.20;29.80;;;;;;5029562;28;20800;-67
2022/01/26 10:21:03;;;;;;;7.83;3.47;;;21.70;29.40;;;;;;5029077;28;20503;-67
2022/01/26 10:23:36;;;;;;;4.40;3.33;;;21.90;29.20;;;;;;5029306;28;20489;-67
2022/01/26 10:26:08;;;;;;;4.30;3.20;;;22.20;29.00;;;;;;5026184;28;20461;-67
2022/01/26 10:28:47;;;;;;;5.30;3.63;;;22.50;28.20;;;;;;5029084;28;20445;-67
2022/01/26 10:31:16;;;;;;;5.33;3.00;;;22.80;27.90;;;;;;5025353;28;20507;-67
2022/01/26 10:33:55;;;;;;;4.10;3.10;;;22.90;27.20;;;;;;5029601;28;20536;-68
2022/01/26 10:36:22;;;;;;;4.67;3.50;;;22.90;27.20;;;;;;5029068;28;20468;-67
2022/01/26 10:38:58;;;;;;;4.30;3.30;;;23.10;27.10;;;;;;5028604;28;20959;-68
2022/01/26 10:41:27;;;;;;;6.13;3.30;;;23.30;26.60;;;;;;5029318;28;20910;-67
2022/01/26 10:43:57;;;;;;;5.37;3.33;;;23.30;25.60;;;;;;5029273;28;20584;-68
2022/01/26 10:46:32;;;;;;;5.00;2.80;;;23.10;26.30;;;;;;5029308;28;21459;-68
2022/01/26 10:49:16;;;;;;;3.50;2.57;;;23.10;26.00;;;;;;5028419;28;20537;-68
2022/01/26 10:51:59;;;;;;;4.83;2.97;;;23.10;26.60;;;;;;5028010;28;20536;-68
2022/01/26 10:54:36;;;;;;;4.83;2.60;;;23.50;26.50;;;;;;5029093;28;20454;-67
2022/01/26 10:57:06;;;;;;;4.10;3.00;;;24.20;25.30;;;;;;5028939;28;20932;-68
2022/01/26 10:59:35;;;;;;;4.90;3.30;;;24.90;25.80;;;;;;5028465;28;20924;-67
2022/01/26 11:02:13;;;;;;;4.50;2.87;;;25.80;23.60;;;;;;5028583;28;20449;-65
2022/01/26 11:04:44;;;;;;;5.50;3.30;;;26.20;22.10;;;;;;5026353;28;20526;-66
2022/01/26 11:07:12;;;;;;;4.70;3.20;;;26.80;22.10;;;;;;5026893;28;20824;-65
2022/01/26 11:09:43;;;;;;;3.83;2.80;;;27.30;21.90;;;;;;5028667;28;20952;-67
2022/01/26 11:12:14;;;;;;;4.27;2.73;;;27.80;22.40;;;;;;5026108;28;20435;-66
2022/01/26 11:14:44;;;;;;;2.87;2.10;;;28.50;20.90;;;;;;5028977;28;20442;-65
2022/01/26 11:17:24;;;;;;;5.53;2.70;;;28.90;19.20;;;;;;5028892;28;20442;-65
2022/01/26 11:19:51;;;;;;;3.30;2.00;;;29.50;18.90;;;;;;5029849;28;20478;-66
2022/01/26 11:22:25;;;;;;;3.87;2.47;;;30.00;17.50;;;;;;5030084;28;20795;-66
2022/01/26 11:24:53;;;;;;;4.37;3.07;;;30.50;17.40;;;;;;5029452;28;21042;-66
2022/01/26 11:27:33;;;;;;;4.10;2.83;;;31.00;17.00;;;;;;5026804;28;21009;-66
2022/01/26 11:30:01;;;;;;;3.93;2.87;;;31.40;15.50;;;;;;5028981;28;21001;-66
2022/01/26 11:32:33;;;;;;;3.80;2.73;;;31.70;15.60;;;;;;5029875;28;20442;-67
2022/01/26 11:35:04;;;;;;;3.40;2.33;;;31.90;15.50;;;;;;5029314;28;20442;-66
2022/01/26 11:37:39;;;;;;;3.97;2.13;;;32.10;14.30;;;;;;5029664;28;20824;-67
2022/01/26 11:45:36;;;;;;;6.40;2.27;;;32.50;14.20;;;;;;5028245;28;20791;-66
2022/01/26 11:48:10;;;;;;;3.60;1.90;;;32.70;13.70;;;;;;5029178;28;20470;-66
2022/01/26 11:50:42;;;;;;;3.17;2.30;;;32.80;13.80;;;;;;5029162;28;20450;-66
2022/01/26 11:53:11;;;;;;;5.67;2.60;;;32.90;13.10;;;;;;5025165;28;20470;-66
2022/01/26 11:55:43;;;;;;;4.60;1.73;;;33.20;12.40;;;;;;5028741;28;20532;-66
2022/01/26 11:58:21;;;;;;;6.20;2.10;;;33.30;11.50;;;;;;5028712;28;20439;-67
2022/01/26 12:00:58;;;;;;;7.30;5.40;;;33.40;11.80;;;;;;5028562;28;20438;-66
2022/01/26 12:03:32;;;;;;;5.13;3.60;;;33.50;11.60;;;;;;5028838;28;20473;-68
2022/01/26 12:06:00;;;;;;;3.50;2.53;;;33.60;11.00;;;;;;5025534;28;20453;-66
2022/01/26 12:08:36;;;;;;;3.20;2.00;;;33.60;11.70;;;;;;5029211;28;20470;-66
2022/01/26 12:11:12;;;;;;;3.67;2.10;;;33.60;11.50;;;;;;5024742;28;20948;-66
2022/01/26 12:13:42;;;;;;;3.10;1.87;;;33.50;10.90;;;;;;5028889;28;20490;-66
2022/01/26 12:16:14;;;;;;;3.50;2.03;;;33.20;11.30;;;;;;5028194;28;20483;-67
2022/01/26 12:18:49;;;;;;;4.17;2.40;;;33.30;11.30;;;;;;5029017;28;20473;-66
2022/01/26 12:35:29;;;;;;;9.27;2.10;;;32.60;10.50;;;;;;5028683;28;20473;-66
2022/01/26 12:38:02;;;;;;;5.47;2.13;;;32.50;10.60;;;;;;5028518;28;20426;-66
2022/01/26 12:43:18;;;;;;;3.03;1.80;;;32.20;10.30;;;;;;5028350;28;20451;-66
2022/01/26 12:45:54;;;;;;;3.60;1.53;;;31.90;10.90;;;;;;5028072;28;20446;-67
2022/01/26 12:48:23;;;;;;;3.03;1.80;;;31.60;10.10;;;;;;5092853;28;20774;-67
2022/01/26 12:50:50;;;;;;;3.40;2.00;;;31.30;9.80;;;;;;5087819;28;20768;-67
2022/01/26 12:53:24;;;;;;;5.83;1.87;;;30.90;10.00;;;;;;5091530;28;20442;-66
2022/01/26 12:55:57;;;;;;;5.30;2.50;;;30.10;11.70;;;;;;5094299;28;20844;-67
2022/01/26 12:58:26;;;;;;;3.50;2.20;;;30.00;11.70;;;;;;5095604;28;20463;-66
2022/01/26 13:01:01;;;;;;;3.37;2.10;;;30.00;12.10;;;;;;5087731;28;20452;-66
2022/01/26 13:03:31;;;;;;;4.77;2.43;;;29.60;12.60;;;;;;5091495;28;20495;-67
2022/01/26 13:06:21;;;;;;;4.20;3.53;;;29.10;13.00;;;;;;5095250;28;20477;-66
2022/01/26 13:08:50;;;;;;;7.20;2.20;;;28.40;13.10;;;;;;5094573;28;20946;-66
2022/01/26 13:11:26;;;;;;;5.30;2.60;;;28.20;12.90;;;;;;5094381;28;20492;-66
2022/01/26 13:14:12;;;;;;;3.77;2.30;;;27.90;13.30;;;;;;5090713;28;20498;-67
2022/01/26 13:16:46;;;;;;;7.70;2.90;;;27.60;13.00;;;;;;5090787;28;20803;-67
2022/01/26 13:19:37;;;;;;;4.77;2.97;;;26.90;13.60;;;;;;5087907;28;20431;-66
2022/01/26 13:25:09;;;;;;;5.20;2.87;;;25.80;15.10;;;;;;5091423;28;20423;-66
2022/01/26 13:27:54;;;;;;;4.50;3.00;;;25.10;15.30;;;;;;5090989;28;20890;-67
2022/01/26 13:30:34;;;;;;;3.40;2.50;;;24.50;15.70;;;;;;5091533;28;20875;-66
2022/01/26 13:36:03;;;;;;;4.33;2.90;;;22.90;16.90;;;;;;5080187;28;20757;-66
2022/01/26 13:38:44;;;;;;;6.57;3.80;;;22.00;17.50;;;;;;5094593;28;20506;-66
2022/01/26 13:41:24;;;;;;;8.07;3.63;;;21.20;18.20;;;;;;5091322;28;20435;-65
2022/01/26 13:52:38;;;;;;;5.13;3.17;;;18.90;19.60;;;;;;5029800;28;20423;-66
2022/01/26 13:58:07;;;;;;;4.73;2.73;;;18.30;20.10;;;;;;5048567;28;20422;-68
2022/01/26 14:00:41;;;;;;;5.40;3.07;;;18.00;20.20;;;;;;5030436;28;20438;-69
2022/01/26 14:03:11;;;;;;;6.00;3.50;;;17.80;21.00;;;;;;5028286;28;20784;-67
2022/01/26 14:05:40;;;;;;;4.60;2.93;;;17.60;21.30;;;;;;5030778;28;20437;-67
2022/01/26 14:08:08;;;;;;;8.40;3.43;;;17.30;21.20;;;;;;5028430;28;20812;-69
2022/01/26 14:10:36;;;;;;;6.67;3.30;;;17.10;21.70;;;;;;5030721;28;20491;-68
2022/01/26 14:13:04;;;;;;;4.50;3.43;;;16.90;21.80;;;;;;5030771;28;20440;-67
2022/01/26 14:15:41;;;;;;;5.47;3.77;;;16.70;22.40;;;;;;5029623;28;20878;-67
2022/01/26 14:18:34;;;;;;;5.03;2.83;;;16.50;22.60;;;;;;5030659;28;20951;-68
2022/01/26 14:21:11;;;;;;;5.50;2.57;;;16.30;22.50;;;;;;5030616;28;20458;-68
2022/01/26 14:23:59;;;;;;;6.10;3.00;;;15.90;23.30;;;;;;5030046;28;20805;-68
2022/01/26 14:26:31;;;;;;;10.23;3.37;;;15.70;23.30;;;;;;5029200;28;20512;-67
2022/01/26 14:28:59;;;;;;;4.33;3.20;;;15.40;23.20;;;;;;5030225;28;20813;-68
2022/01/26 14:31:48;;;;;;;5.83;3.40;;;15.30;23.60;;;;;;5030460;28;20450;-67
2022/01/26 14:34:50;;;;;;;6.13;3.60;;;15.10;23.70;;;;;;5030145;28;20485;-67
2022/01/26 14:51:27;;;;;;;3.83;2.10;;;13.90;24.30;;;;;;4988414;28;20465;-67
2022/01/26 15:20:14;;;;;;;3.65;1.77;;;11.70;23.20;;;;;;5029238;28;20433;-70
2022/01/26 15:42:17;;;;;;;3.42;1.65;;;10.40;24.30;;;;;;5028408;28;20194;-68
2022/01/26 15:45:03;;;;;;;3.15;1.40;;;10.20;24.50;;;;;;5028746;28;20211;-67
2022/01/26 15:50:25;;;;;;;5.22;1.98;;;9.90;25.40;;;;;;5028666;28;20195;-68
2022/01/26 15:53:03;;;;;;;3.22;1.80;;;9.70;25.80;;;;;;5028874;28;20191;-68